AEZ2115 LIRF-LICB
Flight info
| Callsign | AEZ2115 |
|---|---|
| Flight time | 0h 54m |
| Altitude | 35000 |
| Route | RIFFI DCT BEROL DCT ROSAS DCT LIBRO |
| Aircraft | B738/M-SDE2E3FGHIRWXY/LB1 |
Departure
| Time | 2026-05-05 08:42 |
|---|---|
| Airport | Rome–Fiumicino Leonardo da Vinci International Airport (LIRF) |
Arrival
| Time | 2026-05-05 09:36 |
|---|---|
| Airport | Comiso Airport (LICB) |
| Time | Latitude | Longitude | Altitude | Speed | Heading |
|---|---|---|---|---|---|
| 2026-05-05 08:22 | 41.79739 | 12.25850 | 16 ft | 0 kts | 116° |
| 2026-05-05 08:33 | 41.79740 | 12.25850 | 14 ft | 1 kts | 116° |
| 2026-05-05 08:33 | 41.79750 | 12.25821 | 15 ft | 4 kts | 116° |
| 2026-05-05 08:33 | 41.79759 | 12.25791 | 15 ft | 4 kts | 82° |
| 2026-05-05 08:33 | 41.79746 | 12.25769 | 18 ft | 4 kts | 27° |
| 2026-05-05 08:34 | 41.79738 | 12.25763 | 14 ft | 2 kts | 26° |
| 2026-05-05 08:34 | 41.79760 | 12.25778 | 17 ft | 4 kts | 26° |
| 2026-05-05 08:34 | 41.79781 | 12.25792 | 16 ft | 1 kts | 26° |
| 2026-05-05 08:36 | 41.79788 | 12.25796 | 14 ft | 3 kts | 26° |
| 2026-05-05 08:37 | 41.79820 | 12.25814 | 14 ft | 7 kts | 15° |
| 2026-05-05 08:37 | 41.79887 | 12.25835 | 16 ft | 12 kts | 20° |
| 2026-05-05 08:37 | 41.79977 | 12.25887 | 14 ft | 16 kts | 24° |
| 2026-05-05 08:37 | 41.80089 | 12.25955 | 14 ft | 19 kts | 24° |
| 2026-05-05 08:38 | 41.80217 | 12.26034 | 14 ft | 21 kts | 25° |
| 2026-05-05 08:38 | 41.80345 | 12.26113 | 14 ft | 20 kts | 25° |
| 2026-05-05 08:38 | 41.80472 | 12.26178 | 15 ft | 19 kts | 21° |
| 2026-05-05 08:38 | 41.80553 | 12.26307 | 14 ft | 19 kts | 65° |
| 2026-05-05 08:39 | 41.80599 | 12.26466 | 14 ft | 18 kts | 72° |
| 2026-05-05 08:39 | 41.80637 | 12.26623 | 14 ft | 17 kts | 72° |
| 2026-05-05 08:39 | 41.80676 | 12.26773 | 14 ft | 17 kts | 70° |
| 2026-05-05 08:39 | 41.80715 | 12.26918 | 14 ft | 16 kts | 70° |
| 2026-05-05 08:40 | 41.80778 | 12.27032 | 16 ft | 16 kts | 21° |
| 2026-05-05 08:40 | 41.80880 | 12.27006 | 14 ft | 15 kts | 340° |
| 2026-05-05 08:40 | 41.80957 | 12.26926 | 12 ft | 15 kts | 281° |
| 2026-05-05 08:40 | 41.80949 | 12.26876 | 14 ft | 0 kts | 248° |
| 2026-05-05 08:41 | 41.80914 | 12.26762 | 13 ft | 50 kts | 248° |
| 2026-05-05 08:41 | 41.80685 | 12.25938 | 17 ft | 136 kts | 249° |
| 2026-05-05 08:41 | 41.80273 | 12.24547 | 476 ft | 171 kts | 248° |
| 2026-05-05 08:42 | 41.79978 | 12.22925 | 1421 ft | 184 kts | 256° |
| 2026-05-05 08:42 | 41.79761 | 12.21332 | 2780 ft | 163 kts | 243° |
| 2026-05-05 08:42 | 41.79026 | 12.20204 | 3439 ft | 175 kts | 213° |
| 2026-05-05 08:42 | 41.77991 | 12.19228 | 3949 ft | 189 kts | 217° |
| 2026-05-05 08:43 | 41.76937 | 12.18145 | 4601 ft | 194 kts | 219° |
| 2026-05-05 08:43 | 41.75802 | 12.17126 | 5232 ft | 203 kts | 204° |
| 2026-05-05 08:43 | 41.74346 | 12.16735 | 5627 ft | 232 kts | 185° |
| 2026-05-05 08:43 | 41.72627 | 12.16763 | 5995 ft | 257 kts | 181° |
| 2026-05-05 08:44 | 41.70808 | 12.16882 | 6750 ft | 267 kts | 181° |
| 2026-05-05 08:44 | 41.68943 | 12.17009 | 7629 ft | 271 kts | 181° |
| 2026-05-05 08:44 | 41.67041 | 12.17128 | 8612 ft | 275 kts | 182° |
| 2026-05-05 08:44 | 41.65115 | 12.17237 | 9562 ft | 280 kts | 182° |
| 2026-05-05 08:45 | 41.63174 | 12.17338 | 10390 ft | 286 kts | 182° |
| 2026-05-05 08:45 | 41.61113 | 12.17435 | 10679 ft | 310 kts | 182° |
| 2026-05-05 08:45 | 41.58860 | 12.17537 | 10913 ft | 336 kts | 182° |
| 2026-05-05 08:45 | 41.56445 | 12.17646 | 11249 ft | 357 kts | 182° |
| 2026-05-05 08:46 | 41.53940 | 12.17458 | 11941 ft | 362 kts | 192° |
| 2026-05-05 08:46 | 41.51435 | 12.17129 | 12844 ft | 367 kts | 182° |
| 2026-05-05 08:46 | 41.48899 | 12.17840 | 13631 ft | 380 kts | 161° |
| 2026-05-05 08:46 | 41.46650 | 12.19756 | 14327 ft | 393 kts | 141° |
| 2026-05-05 08:47 | 41.44726 | 12.22319 | 14995 ft | 398 kts | 137° |
| 2026-05-05 08:47 | 41.42813 | 12.25005 | 15612 ft | 403 kts | 137° |
| 2026-05-05 08:47 | 41.40880 | 12.27745 | 16247 ft | 407 kts | 137° |
| 2026-05-05 08:47 | 41.38931 | 12.30489 | 16967 ft | 411 kts | 137° |
| 2026-05-05 08:48 | 41.36944 | 12.33258 | 17821 ft | 415 kts | 137° |
| 2026-05-05 08:48 | 41.34936 | 12.36033 | 18593 ft | 419 kts | 138° |
| 2026-05-05 08:48 | 41.32903 | 12.38826 | 19201 ft | 424 kts | 138° |
| 2026-05-05 08:48 | 41.30862 | 12.41623 | 19720 ft | 428 kts | 138° |
| 2026-05-05 08:49 | 41.28749 | 12.44516 | 20181 ft | 434 kts | 138° |
| 2026-05-05 08:49 | 41.26660 | 12.47375 | 20654 ft | 438 kts | 138° |
| 2026-05-05 08:49 | 41.24532 | 12.50282 | 21140 ft | 441 kts | 138° |
| 2026-05-05 08:49 | 41.22254 | 12.53019 | 21580 ft | 439 kts | 151° |
| 2026-05-05 08:50 | 41.19544 | 12.54765 | 22039 ft | 432 kts | 165° |
| 2026-05-05 08:50 | 41.16698 | 12.56114 | 22542 ft | 435 kts | 166° |
| 2026-05-05 08:50 | 41.13833 | 12.57430 | 22962 ft | 439 kts | 166° |
| 2026-05-05 08:50 | 41.10966 | 12.58744 | 23368 ft | 443 kts | 166° |
| 2026-05-05 08:51 | 41.08049 | 12.60094 | 23763 ft | 447 kts | 166° |
| 2026-05-05 08:51 | 41.05102 | 12.61474 | 24143 ft | 449 kts | 166° |
| 2026-05-05 08:51 | 41.02158 | 12.62866 | 24549 ft | 451 kts | 166° |
| 2026-05-05 08:51 | 40.99206 | 12.64269 | 24951 ft | 453 kts | 166° |
| 2026-05-05 08:52 | 40.96228 | 12.65687 | 25332 ft | 455 kts | 166° |
| 2026-05-05 08:52 | 40.93251 | 12.67105 | 25705 ft | 457 kts | 166° |
| 2026-05-05 08:52 | 40.90246 | 12.68534 | 26058 ft | 459 kts | 166° |
| 2026-05-05 08:52 | 40.87241 | 12.69962 | 26408 ft | 461 kts | 166° |
| 2026-05-05 08:53 | 40.84249 | 12.71381 | 26750 ft | 463 kts | 166° |
| 2026-05-05 08:53 | 40.81219 | 12.72817 | 27089 ft | 465 kts | 166° |
| 2026-05-05 08:53 | 40.78161 | 12.74264 | 27412 ft | 467 kts | 166° |
| 2026-05-05 08:53 | 40.75103 | 12.75710 | 27726 ft | 469 kts | 166° |
| 2026-05-05 08:54 | 40.72017 | 12.77168 | 28033 ft | 471 kts | 166° |
| 2026-05-05 08:54 | 40.68929 | 12.78624 | 28444 ft | 474 kts | 166° |
| 2026-05-05 08:54 | 40.65827 | 12.80087 | 28854 ft | 476 kts | 166° |
| 2026-05-05 08:54 | 40.62705 | 12.81558 | 29322 ft | 475 kts | 166° |
| 2026-05-05 08:55 | 40.59610 | 12.83017 | 29841 ft | 472 kts | 166° |
| 2026-05-05 08:55 | 40.56560 | 12.84454 | 30349 ft | 470 kts | 166° |
| 2026-05-05 08:55 | 40.53449 | 12.85916 | 30701 ft | 470 kts | 167° |
| 2026-05-05 08:55 | 40.50396 | 12.87346 | 30938 ft | 472 kts | 167° |
| 2026-05-05 08:56 | 40.47299 | 12.88795 | 31166 ft | 474 kts | 167° |
| 2026-05-05 08:56 | 40.44183 | 12.90253 | 31477 ft | 474 kts | 167° |
| 2026-05-05 08:56 | 40.41082 | 12.91704 | 31815 ft | 474 kts | 167° |
| 2026-05-05 08:56 | 40.37967 | 12.93160 | 32095 ft | 475 kts | 167° |
| 2026-05-05 08:57 | 40.34858 | 12.94612 | 32354 ft | 476 kts | 167° |
| 2026-05-05 08:57 | 40.31767 | 12.96053 | 32618 ft | 477 kts | 167° |
| 2026-05-05 08:57 | 40.28646 | 12.97508 | 32916 ft | 477 kts | 167° |
| 2026-05-05 08:57 | 40.25524 | 12.98963 | 33205 ft | 478 kts | 167° |
| 2026-05-05 08:58 | 40.22383 | 13.00424 | 33465 ft | 479 kts | 167° |
| 2026-05-05 08:58 | 40.19232 | 13.01875 | 33725 ft | 479 kts | 168° |
| 2026-05-05 08:58 | 40.16072 | 13.03204 | 33987 ft | 478 kts | 170° |
| 2026-05-05 08:58 | 40.12899 | 13.04449 | 34259 ft | 477 kts | 171° |
| 2026-05-05 08:59 | 40.09712 | 13.05667 | 34544 ft | 475 kts | 171° |
| 2026-05-05 08:59 | 40.06547 | 13.06875 | 34849 ft | 474 kts | 170° |
| 2026-05-05 08:59 | 40.03418 | 13.08078 | 35108 ft | 474 kts | 170° |
| 2026-05-05 09:00 | 39.97046 | 13.10556 | 35096 ft | 479 kts | 170° |
| 2026-05-05 09:00 | 39.90682 | 13.13060 | 35098 ft | 475 kts | 169° |
| 2026-05-05 09:01 | 39.84416 | 13.15526 | 35118 ft | 472 kts | 169° |
| 2026-05-05 09:01 | 39.78102 | 13.18001 | 35110 ft | 471 kts | 169° |
| 2026-05-05 09:02 | 39.71867 | 13.20438 | 35112 ft | 471 kts | 169° |
| 2026-05-05 09:02 | 39.65593 | 13.22886 | 35116 ft | 471 kts | 169° |
| 2026-05-05 09:03 | 39.59311 | 13.25332 | 35115 ft | 472 kts | 169° |
| 2026-05-05 09:03 | 39.53054 | 13.27764 | 35119 ft | 473 kts | 169° |
| 2026-05-05 09:04 | 39.46736 | 13.30216 | 35118 ft | 475 kts | 169° |
| 2026-05-05 09:04 | 39.40399 | 13.32671 | 35115 ft | 476 kts | 169° |
| 2026-05-05 09:05 | 39.34048 | 13.35127 | 35120 ft | 477 kts | 169° |
| 2026-05-05 09:05 | 39.27726 | 13.37566 | 35122 ft | 478 kts | 169° |
| 2026-05-05 09:06 | 39.21355 | 13.40021 | 35121 ft | 478 kts | 169° |
| 2026-05-05 09:06 | 39.14983 | 13.42471 | 35119 ft | 478 kts | 169° |
| 2026-05-05 09:07 | 39.08617 | 13.44914 | 35128 ft | 477 kts | 169° |
| 2026-05-05 09:07 | 39.02298 | 13.47334 | 35128 ft | 477 kts | 169° |
| 2026-05-05 09:08 | 38.95958 | 13.49759 | 35124 ft | 476 kts | 169° |
| 2026-05-05 09:08 | 38.89607 | 13.52182 | 35122 ft | 476 kts | 169° |
| 2026-05-05 09:09 | 38.83354 | 13.55080 | 35108 ft | 485 kts | 156° |
| 2026-05-05 09:09 | 38.77533 | 13.59506 | 35123 ft | 487 kts | 153° |
| 2026-05-05 09:10 | 38.71791 | 13.64026 | 35128 ft | 488 kts | 153° |
| 2026-05-05 09:10 | 38.65983 | 13.68527 | 35130 ft | 488 kts | 153° |
| 2026-05-05 09:11 | 38.60146 | 13.72988 | 35126 ft | 489 kts | 153° |
| 2026-05-05 09:11 | 38.54290 | 13.77439 | 35126 ft | 490 kts | 153° |
| 2026-05-05 09:12 | 38.48463 | 13.81861 | 35127 ft | 491 kts | 153° |
| 2026-05-05 09:12 | 38.42588 | 13.86314 | 35124 ft | 491 kts | 153° |
| 2026-05-05 09:13 | 38.36713 | 13.90760 | 35111 ft | 492 kts | 153° |
| 2026-05-05 09:13 | 38.33746 | 13.93001 | 34630 ft | 497 kts | 153° |
| 2026-05-05 09:13 | 38.30786 | 13.95235 | 34040 ft | 494 kts | 153° |
| 2026-05-05 09:13 | 38.27856 | 13.97445 | 33291 ft | 495 kts | 153° |
| 2026-05-05 09:14 | 38.24900 | 13.99672 | 32564 ft | 495 kts | 153° |
| 2026-05-05 09:14 | 38.21943 | 14.01898 | 31816 ft | 495 kts | 152° |
| 2026-05-05 09:14 | 38.18977 | 14.04129 | 31035 ft | 495 kts | 152° |
| 2026-05-05 09:14 | 38.16011 | 14.06357 | 30248 ft | 494 kts | 152° |
| 2026-05-05 09:15 | 38.13061 | 14.08571 | 29439 ft | 491 kts | 152° |
| 2026-05-05 09:15 | 38.10121 | 14.10776 | 28381 ft | 493 kts | 152° |
| 2026-05-05 09:15 | 38.07185 | 14.12977 | 27771 ft | 485 kts | 152° |
| 2026-05-05 09:15 | 38.04294 | 14.15142 | 27110 ft | 480 kts | 152° |
| 2026-05-05 09:16 | 38.01464 | 14.17260 | 26428 ft | 476 kts | 152° |
| 2026-05-05 09:16 | 37.98638 | 14.19372 | 25822 ft | 470 kts | 152° |
| 2026-05-05 09:16 | 37.95829 | 14.21469 | 25204 ft | 466 kts | 152° |
| 2026-05-05 09:16 | 37.93053 | 14.23538 | 24587 ft | 462 kts | 152° |
| 2026-05-05 09:17 | 37.90293 | 14.25594 | 23953 ft | 458 kts | 152° |
| 2026-05-05 09:17 | 37.87566 | 14.27624 | 23308 ft | 453 kts | 152° |
| 2026-05-05 09:17 | 37.84894 | 14.29612 | 22641 ft | 448 kts | 152° |
| 2026-05-05 09:17 | 37.82194 | 14.31619 | 22052 ft | 442 kts | 152° |
| 2026-05-05 09:18 | 37.79547 | 14.33585 | 21397 ft | 439 kts | 152° |
| 2026-05-05 09:18 | 37.76972 | 14.35495 | 20785 ft | 435 kts | 152° |
| 2026-05-05 09:18 | 37.74386 | 14.37412 | 20214 ft | 430 kts | 152° |
| 2026-05-05 09:18 | 37.71812 | 14.39318 | 19670 ft | 426 kts | 152° |
| 2026-05-05 09:19 | 37.69270 | 14.41200 | 19057 ft | 423 kts | 152° |
| 2026-05-05 09:19 | 37.66729 | 14.43080 | 18460 ft | 421 kts | 152° |
| 2026-05-05 09:19 | 37.64223 | 14.44931 | 17862 ft | 416 kts | 152° |
| 2026-05-05 09:19 | 37.61693 | 14.46555 | 17260 ft | 408 kts | 166° |
| 2026-05-05 09:20 | 37.58938 | 14.47337 | 16765 ft | 400 kts | 173° |
| 2026-05-05 09:20 | 37.56239 | 14.47888 | 16218 ft | 396 kts | 174° |
| 2026-05-05 09:20 | 37.53525 | 14.48394 | 15682 ft | 392 kts | 174° |
| 2026-05-05 09:20 | 37.50835 | 14.48893 | 15088 ft | 391 kts | 174° |
| 2026-05-05 09:21 | 37.48147 | 14.49405 | 14522 ft | 389 kts | 174° |
| 2026-05-05 09:21 | 37.45485 | 14.49926 | 13963 ft | 387 kts | 173° |
| 2026-05-05 09:21 | 37.42825 | 14.50458 | 13326 ft | 385 kts | 173° |
| 2026-05-05 09:21 | 37.40194 | 14.50990 | 12766 ft | 382 kts | 173° |
| 2026-05-05 09:22 | 37.37583 | 14.51522 | 12196 ft | 380 kts | 173° |
| 2026-05-05 09:22 | 37.35015 | 14.52046 | 11626 ft | 377 kts | 172° |
| 2026-05-05 09:22 | 37.32440 | 14.52571 | 11183 ft | 372 kts | 172° |
| 2026-05-05 09:22 | 37.29921 | 14.53087 | 11026 ft | 360 kts | 172° |
| 2026-05-05 09:23 | 37.27490 | 14.53583 | 10840 ft | 349 kts | 172° |
| 2026-05-05 09:23 | 37.25122 | 14.54067 | 10692 ft | 339 kts | 172° |
| 2026-05-05 09:23 | 37.22837 | 14.54532 | 10570 ft | 328 kts | 172° |
| 2026-05-05 09:23 | 37.20611 | 14.54984 | 10436 ft | 319 kts | 172° |
| 2026-05-05 09:24 | 37.18454 | 14.55423 | 10295 ft | 311 kts | 172° |
| 2026-05-05 09:24 | 37.16371 | 14.55846 | 10170 ft | 303 kts | 172° |
| 2026-05-05 09:24 | 37.14323 | 14.56261 | 10111 ft | 293 kts | 172° |
| 2026-05-05 09:24 | 37.12314 | 14.56668 | 9678 ft | 298 kts | 172° |
| 2026-05-05 09:25 | 37.10257 | 14.57084 | 9307 ft | 299 kts | 172° |
| 2026-05-05 09:25 | 37.08203 | 14.57501 | 8984 ft | 299 kts | 172° |
| 2026-05-05 09:25 | 37.06145 | 14.57918 | 8668 ft | 298 kts | 172° |
| 2026-05-05 09:25 | 37.04102 | 14.58332 | 8375 ft | 297 kts | 172° |
| 2026-05-05 09:26 | 37.02056 | 14.58746 | 8049 ft | 298 kts | 172° |
| 2026-05-05 09:26 | 37.00003 | 14.58991 | 7696 ft | 297 kts | 186° |
| 2026-05-05 09:26 | 36.98077 | 14.58238 | 7388 ft | 294 kts | 211° |
| 2026-05-05 09:26 | 36.96524 | 14.56627 | 7016 ft | 293 kts | 229° |
| 2026-05-05 09:27 | 36.95221 | 14.54644 | 6622 ft | 295 kts | 232° |
| 2026-05-05 09:27 | 36.93946 | 14.52641 | 6272 ft | 295 kts | 231° |
| 2026-05-05 09:27 | 36.92638 | 14.50673 | 5939 ft | 293 kts | 225° |
| 2026-05-05 09:27 | 36.90939 | 14.49329 | 5622 ft | 291 kts | 198° |
| 2026-05-05 09:28 | 36.88966 | 14.49018 | 5409 ft | 284 kts | 177° |
| 2026-05-05 09:28 | 36.87041 | 14.49205 | 5404 ft | 270 kts | 174° |
| 2026-05-05 09:28 | 36.85209 | 14.49437 | 5400 ft | 262 kts | 174° |
| 2026-05-05 09:28 | 36.83422 | 14.49672 | 5393 ft | 260 kts | 174° |
| 2026-05-05 09:29 | 36.81653 | 14.49905 | 5349 ft | 252 kts | 175° |
| 2026-05-05 09:29 | 36.79961 | 14.49633 | 5254 ft | 242 kts | 204° |
| 2026-05-05 09:29 | 36.78684 | 14.48374 | 5190 ft | 233 kts | 236° |
| 2026-05-05 09:29 | 36.78141 | 14.46521 | 4971 ft | 229 kts | 268° |
| 2026-05-05 09:30 | 36.78479 | 14.44607 | 4670 ft | 230 kts | 300° |
| 2026-05-05 09:30 | 36.79580 | 14.43230 | 4368 ft | 230 kts | 333° |
| 2026-05-05 09:30 | 36.81138 | 14.42789 | 4089 ft | 230 kts | 1° |
| 2026-05-05 09:30 | 36.82706 | 14.42933 | 3801 ft | 226 kts | 8° |
| 2026-05-05 09:31 | 36.84238 | 14.43251 | 3496 ft | 221 kts | 10° |
| 2026-05-05 09:31 | 36.85726 | 14.43594 | 3196 ft | 215 kts | 11° |
| 2026-05-05 09:31 | 36.87149 | 14.43928 | 3044 ft | 198 kts | 11° |
| 2026-05-05 09:31 | 36.88341 | 14.44550 | 3009 ft | 179 kts | 43° |
| 2026-05-05 09:32 | 36.89187 | 14.45606 | 2988 ft | 165 kts | 44° |
| 2026-05-05 09:32 | 36.89983 | 14.46575 | 3036 ft | 154 kts | 47° |
| 2026-05-05 09:32 | 36.90671 | 14.47525 | 3039 ft | 149 kts | 50° |
| 2026-05-05 09:32 | 36.91354 | 14.48526 | 2959 ft | 149 kts | 51° |
| 2026-05-05 09:33 | 36.92010 | 14.49506 | 2793 ft | 148 kts | 51° |
| 2026-05-05 09:33 | 36.92660 | 14.50487 | 2601 ft | 145 kts | 51° |
| 2026-05-05 09:33 | 36.93304 | 14.51453 | 2413 ft | 143 kts | 51° |
| 2026-05-05 09:33 | 36.93943 | 14.52418 | 2222 ft | 145 kts | 51° |
| 2026-05-05 09:34 | 36.94593 | 14.53391 | 2020 ft | 145 kts | 51° |
| 2026-05-05 09:34 | 36.95235 | 14.54355 | 1811 ft | 143 kts | 51° |
| 2026-05-05 09:34 | 36.95861 | 14.55297 | 1646 ft | 143 kts | 50° |
| 2026-05-05 09:34 | 36.96502 | 14.56262 | 1438 ft | 145 kts | 50° |
| 2026-05-05 09:35 | 36.97144 | 14.57226 | 1252 ft | 143 kts | 50° |
| 2026-05-05 09:35 | 36.98408 | 14.59126 | 878 ft | 139 kts | 49° |
| 2026-05-05 09:35 | 36.99025 | 14.60051 | 690 ft | 138 kts | 49° |
| 2026-05-05 09:36 | 36.99490 | 14.60753 | 713 ft | 59 kts | 49° |
| 2026-05-05 09:36 | 36.99719 | 14.61085 | 728 ft | 37 kts | 49° |
| 2026-05-05 09:36 | 36.99872 | 14.61300 | 737 ft | 30 kts | 45° |
| 2026-05-05 09:36 | 37.00033 | 14.61433 | 745 ft | 17 kts | 21° |
| 2026-05-05 09:37 | 37.00131 | 14.61421 | 746 ft | 12 kts | 293° |
| 2026-05-05 09:37 | 37.00103 | 14.61334 | 745 ft | 9 kts | 237° |
| 2026-05-05 09:37 | 37.00062 | 14.61260 | 741 ft | 11 kts | 229° |
| 2026-05-05 09:37 | 37.00002 | 14.61181 | 739 ft | 14 kts | 225° |
| 2026-05-05 09:38 | 36.99931 | 14.61084 | 734 ft | 16 kts | 230° |
| 2026-05-05 09:38 | 36.99870 | 14.60993 | 730 ft | 12 kts | 230° |
| 2026-05-05 09:38 | 36.99813 | 14.60908 | 728 ft | 11 kts | 230° |
| 2026-05-05 09:38 | 36.99762 | 14.60832 | 725 ft | 7 kts | 231° |
| 2026-05-05 09:39 | 36.99740 | 14.60770 | 723 ft | 5 kts | 292° |
| 2026-05-05 09:39 | 36.99759 | 14.60752 | 722 ft | 3 kts | 337° |
| 2026-05-05 09:39 | 36.99768 | 14.60748 | 723 ft | 0 kts | 341° |